sensor_id;sensor_type;location;lat;lon;timestamp;P1;P2;P0
44933;PMS3003;30667;43.614;1.442;2023-01-25T00:00:45;54.00;44.00;30.00
44933;PMS3003;30667;43.614;1.442;2023-01-25T00:03:10;51.25;44.00;29.25
44933;PMS3003;30667;43.614;1.442;2023-01-25T00:05:36;52.33;44.00;29.00
44933;PMS3003;30667;43.614;1.442;2023-01-25T00:08:01;52.00;44.00;28.67
44933;PMS3003;30667;43.614;1.442;2023-01-25T00:10:26;53.75;44.00;28.00
44933;PMS3003;30667;43.614;1.442;2023-01-25T00:12:52;50.75;41.00;26.50
44933;PMS3003;30667;43.614;1.442;2023-01-25T00:15:17;49.75;44.00;27.75
44933;PMS3003;30667;43.614;1.442;2023-01-25T00:17:42;47.50;42.75;27.25
44933;PMS3003;30667;43.614;1.442;2023-01-25T00:20:08;50.75;43.00;28.00
44933;PMS3003;30667;43.614;1.442;2023-01-25T00:22:34;47.80;39.20;26.60
44933;PMS3003;30667;43.614;1.442;2023-01-25T00:24:59;45.75;40.25;26.00
44933;PMS3003;30667;43.614;1.442;2023-01-25T00:27:25;48.75;43.00;28.00
44933;PMS3003;30667;43.614;1.442;2023-01-25T00:29:50;46.75;42.75;28.00
44933;PMS3003;30667;43.614;1.442;2023-01-25T00:34:47;47.25;40.00;27.25
44933;PMS3003;30667;43.614;1.442;2023-01-25T00:39:49;51.40;44.20;27.80
44933;PMS3003;30667;43.614;1.442;2023-01-25T00:42:15;48.00;42.75;28.00
44933;PMS3003;30667;43.614;1.442;2023-01-25T00:44:41;47.20;42.00;26.80
44933;PMS3003;30667;43.614;1.442;2023-01-25T00:47:10;55.33;44.00;28.00
44933;PMS3003;30667;43.614;1.442;2023-01-25T00:49:37;51.75;44.00;29.50
44933;PMS3003;30667;43.614;1.442;2023-01-25T00:52:04;46.40;42.60;27.80
44933;PMS3003;30667;43.614;1.442;2023-01-25T00:54:30;49.75;42.50;28.25
44933;PMS3003;30667;43.614;1.442;2023-01-25T00:56:55;46.00;42.00;28.00
44933;PMS3003;30667;43.614;1.442;2023-01-25T00:59:21;53.67;45.67;30.33
44933;PMS3003;30667;43.614;1.442;2023-01-25T01:01:48;59.50;49.00;31.50
44933;PMS3003;30667;43.614;1.442;2023-01-25T01:04:13;53.33;45.00;29.67
44933;PMS3003;30667;43.614;1.442;2023-01-25T01:06:39;47.33;43.00;29.00
44933;PMS3003;30667;43.614;1.442;2023-01-25T01:09:06;55.25;45.75;29.50
44933;PMS3003;30667;43.614;1.442;2023-01-25T01:11:35;51.25;44.75;29.00
44933;PMS3003;30667;43.614;1.442;2023-01-25T01:14:01;57.67;44.67;28.00
44933;PMS3003;30667;43.614;1.442;2023-01-25T01:16:26;60.67;45.33;29.33
44933;PMS3003;30667;43.614;1.442;2023-01-25T01:18:52;50.00;43.00;26.50
44933;PMS3003;30667;43.614;1.442;2023-01-25T01:21:18;51.40;44.00;27.80
44933;PMS3003;30667;43.614;1.442;2023-01-25T01:23:44;53.40;43.00;28.20
44933;PMS3003;30667;43.614;1.442;2023-01-25T01:26:12;48.75;38.75;24.00
44933;PMS3003;30667;43.614;1.442;2023-01-25T01:28:39;43.80;40.00;24.20
44933;PMS3003;30667;43.614;1.442;2023-01-25T01:31:07;50.40;41.80;25.60
44933;PMS3003;30667;43.614;1.442;2023-01-25T01:33:35;41.40;36.40;25.60
44933;PMS3003;30667;43.614;1.442;2023-01-25T01:36:33;47.00;41.75;27.75
44933;PMS3003;30667;43.614;1.442;2023-01-25T01:38:53;50.00;41.60;28.00
44933;PMS3003;30667;43.614;1.442;2023-01-25T01:41:18;53.75;45.00;28.00
44933;PMS3003;30667;43.614;1.442;2023-01-25T01:43:44;44.25;42.00;26.50
44933;PMS3003;30667;43.614;1.442;2023-01-25T01:46:12;48.00;44.25;27.75
44933;PMS3003;30667;43.614;1.442;2023-01-25T02:00:01;47.00;42.80;25.20
44933;PMS3003;30667;43.614;1.442;2023-01-25T02:02:34;50.00;42.60;28.20
44933;PMS3003;30667;43.614;1.442;2023-01-25T02:05:00;47.25;41.50;26.25
44933;PMS3003;30667;43.614;1.442;2023-01-25T02:07:33;41.00;38.20;24.60
44933;PMS3003;30667;43.614;1.442;2023-01-25T02:10:01;59.25;48.25;30.75
44933;PMS3003;30667;43.614;1.442;2023-01-25T02:12:28;57.25;46.50;30.75
44933;PMS3003;30667;43.614;1.442;2023-01-25T02:14:54;59.33;46.00;31.00
44933;PMS3003;30667;43.614;1.442;2023-01-25T02:17:41;65.33;54.67;35.00
44933;PMS3003;30667;43.614;1.442;2023-01-25T02:25:34;70.00;53.50;36.75
44933;PMS3003;30667;43.614;1.442;2023-01-25T02:28:03;71.25;57.50;37.75
44933;PMS3003;30667;43.614;1.442;2023-01-25T02:30:35;70.75;57.75;37.75
44933;PMS3003;30667;43.614;1.442;2023-01-25T02:33:01;72.75;56.00;37.00
44933;PMS3003;30667;43.614;1.442;2023-01-25T02:35:40;72.67;58.67;38.00
44933;PMS3003;30667;43.614;1.442;2023-01-25T02:38:08;72.25;56.75;37.00
44933;PMS3003;30667;43.614;1.442;2023-01-25T02:40:42;70.75;55.25;37.00
44933;PMS3003;30667;43.614;1.442;2023-01-25T02:43:21;71.75;57.75;37.25
44933;PMS3003;30667;43.614;1.442;2023-01-25T02:45:55;71.75;59.25;38.00
44933;PMS3003;30667;43.614;1.442;2023-01-25T02:48:27;74.75;59.75;39.00
44933;PMS3003;30667;43.614;1.442;2023-01-25T02:50:53;73.33;57.33;38.00
44933;PMS3003;30667;43.614;1.442;2023-01-25T02:53:18;74.67;59.33;38.33
44933;PMS3003;30667;43.614;1.442;2023-01-25T02:55:43;68.00;54.33;37.00
44933;PMS3003;30667;43.614;1.442;2023-01-25T02:58:09;74.00;56.00;37.00
44933;PMS3003;30667;43.614;1.442;2023-01-25T03:00:34;74.67;59.67;39.33
44933;PMS3003;30667;43.614;1.442;2023-01-25T03:03:00;68.33;54.33;35.00
44933;PMS3003;30667;43.614;1.442;2023-01-25T03:05:25;75.67;56.33;36.00
44933;PMS3003;30667;43.614;1.442;2023-01-25T03:07:51;68.33;51.33;34.00
44933;PMS3003;30667;43.614;1.442;2023-01-25T03:10:16;68.00;53.33;33.00
44933;PMS3003;30667;43.614;1.442;2023-01-25T03:12:42;65.67;51.33;33.67
44933;PMS3003;30667;43.614;1.442;2023-01-25T03:15:07;64.00;50.00;33.00
44933;PMS3003;30667;43.614;1.442;2023-01-25T03:17:33;66.33;52.67;33.00
44933;PMS3003;30667;43.614;1.442;2023-01-25T03:19:58;63.67;50.00;31.33
44933;PMS3003;30667;43.614;1.442;2023-01-25T03:22:24;61.33;50.33;31.33
44933;PMS3003;30667;43.614;1.442;2023-01-25T03:24:50;60.75;49.25;31.25
44933;PMS3003;30667;43.614;1.442;2023-01-25T03:27:16;62.00;48.33;31.00
44933;PMS3003;30667;43.614;1.442;2023-01-25T03:29:43;54.75;46.50;31.00
44933;PMS3003;30667;43.614;1.442;2023-01-25T03:32:09;57.25;46.75;30.25
44933;PMS3003;30667;43.614;1.442;2023-01-25T03:34:35;54.00;43.80;27.80
44933;PMS3003;30667;43.614;1.442;2023-01-25T03:37:00;52.50;44.25;28.00
44933;PMS3003;30667;43.614;1.442;2023-01-25T03:39:26;48.25;43.00;28.00
44933;PMS3003;30667;43.614;1.442;2023-01-25T03:41:52;51.75;44.50;28.00
44933;PMS3003;30667;43.614;1.442;2023-01-25T03:44:17;55.33;46.00;29.67
44933;PMS3003;30667;43.614;1.442;2023-01-25T03:46:43;56.33;47.00;29.67
44933;PMS3003;30667;43.614;1.442;2023-01-25T03:49:08;56.00;46.67;29.33
44933;PMS3003;30667;43.614;1.442;2023-01-25T03:51:33;62.67;46.67;29.33
44933;PMS3003;30667;43.614;1.442;2023-01-25T03:53:59;53.25;43.75;28.00
44933;PMS3003;30667;43.614;1.442;2023-01-25T03:56:25;50.50;45.75;28.00
44933;PMS3003;30667;43.614;1.442;2023-01-25T03:58:50;57.25;46.75;31.00
44933;PMS3003;30667;43.614;1.442;2023-01-25T04:01:16;53.75;45.50;29.00
44933;PMS3003;30667;43.614;1.442;2023-01-25T04:03:41;49.75;43.75;27.00
44933;PMS3003;30667;43.614;1.442;2023-01-25T04:06:07;52.75;42.75;28.00
44933;PMS3003;30667;43.614;1.442;2023-01-25T04:08:32;58.67;46.33;29.00
44933;PMS3003;30667;43.614;1.442;2023-01-25T04:11:02;55.00;47.33;31.00
44933;PMS3003;30667;43.614;1.442;2023-01-25T04:13:29;62.50;47.75;29.00
44933;PMS3003;30667;43.614;1.442;2023-01-25T04:15:55;63.25;49.00;31.00
44933;PMS3003;30667;43.614;1.442;2023-01-25T04:18:21;61.33;50.00;32.00
44933;PMS3003;30667;43.614;1.442;2023-01-25T04:20:53;65.00;50.00;32.67
44933;PMS3003;30667;43.614;1.442;2023-01-25T04:23:20;63.75;48.00;32.50
44933;PMS3003;30667;43.614;1.442;2023-01-25T04:25:53;58.25;49.75;31.00
44933;PMS3003;30667;43.614;1.442;2023-01-25T04:28:22;56.00;48.25;32.50
44933;PMS3003;30667;43.614;1.442;2023-01-25T04:30:48;58.25;46.25;28.75
44933;PMS3003;30667;43.614;1.442;2023-01-25T04:33:14;51.50;45.00;29.00
44933;PMS3003;30667;43.614;1.442;2023-01-25T04:35:39;54.25;45.75;29.00
44933;PMS3003;30667;43.614;1.442;2023-01-25T04:38:05;47.25;43.00;27.00
44933;PMS3003;30667;43.614;1.442;2023-01-25T04:40:31;44.50;42.50;26.75
44933;PMS3003;30667;43.614;1.442;2023-01-25T04:42:56;54.80;45.40;28.40
44933;PMS3003;30667;43.614;1.442;2023-01-25T04:45:23;44.00;39.00;24.40
44933;PMS3003;30667;43.614;1.442;2023-01-25T04:47:53;47.40;42.60;27.80
44933;PMS3003;30667;43.614;1.442;2023-01-25T04:50:29;46.00;42.20;27.80
44933;PMS3003;30667;43.614;1.442;2023-01-25T04:52:55;49.40;42.00;27.20
44933;PMS3003;30667;43.614;1.442;2023-01-25T04:55:20;49.25;38.00;25.75
44933;PMS3003;30667;43.614;1.442;2023-01-25T04:57:49;50.75;42.75;25.75
44933;PMS3003;30667;43.614;1.442;2023-01-25T05:00:15;48.80;41.80;28.40
44933;PMS3003;30667;43.614;1.442;2023-01-25T05:02:41;45.00;40.40;25.60
44933;PMS3003;30667;43.614;1.442;2023-01-25T05:05:06;48.75;42.50;27.25
44933;PMS3003;30667;43.614;1.442;2023-01-25T05:07:32;42.60;39.00;25.80
44933;PMS3003;30667;43.614;1.442;2023-01-25T05:09:58;39.75;38.75;24.25
44933;PMS3003;30667;43.614;1.442;2023-01-25T05:12:23;47.75;42.00;24.75
44933;PMS3003;30667;43.614;1.442;2023-01-25T05:14:48;49.00;42.75;27.00
44933;PMS3003;30667;43.614;1.442;2023-01-25T05:17:14;44.25;40.00;25.50
44933;PMS3003;30667;43.614;1.442;2023-01-25T05:19:40;44.40;38.40;23.20
44933;PMS3003;30667;43.614;1.442;2023-01-25T05:22:06;40.75;37.25;24.25
44933;PMS3003;30667;43.614;1.442;2023-01-25T05:24:32;45.75;42.25;26.25
44933;PMS3003;30667;43.614;1.442;2023-01-25T05:26:59;45.00;37.60;25.00
44933;PMS3003;30667;43.614;1.442;2023-01-25T05:29:29;46.00;38.20;25.80
44933;PMS3003;30667;43.614;1.442;2023-01-25T05:32:00;53.00;43.80;27.60
44933;PMS3003;30667;43.614;1.442;2023-01-25T05:34:30;48.20;40.60;26.20
44933;PMS3003;30667;43.614;1.442;2023-01-25T05:36:56;44.20;40.00;25.00
44933;PMS3003;30667;43.614;1.442;2023-01-25T05:39:21;45.75;39.50;26.50
44933;PMS3003;30667;43.614;1.442;2023-01-25T05:41:47;45.50;42.25;23.00
44933;PMS3003;30667;43.614;1.442;2023-01-25T05:44:13;50.00;39.00;23.50
44933;PMS3003;30667;43.614;1.442;2023-01-25T05:46:38;46.50;39.50;25.50
44933;PMS3003;30667;43.614;1.442;2023-01-25T05:49:04;41.75;37.75;23.50
44933;PMS3003;30667;43.614;1.442;2023-01-25T05:51:29;48.25;39.50;24.00
44933;PMS3003;30667;43.614;1.442;2023-01-25T05:53:55;42.50;37.50;23.00
44933;PMS3003;30667;43.614;1.442;2023-01-25T05:56:20;44.60;38.20;24.00
44933;PMS3003;30667;43.614;1.442;2023-01-25T05:58:46;46.60;41.00;23.80
44933;PMS3003;30667;43.614;1.442;2023-01-25T06:01:16;40.00;37.20;23.60
44933;PMS3003;30667;43.614;1.442;2023-01-25T06:03:41;36.75;35.25;22.75
44933;PMS3003;30667;43.614;1.442;2023-01-25T06:06:06;43.25;37.25;23.00
44933;PMS3003;30667;43.614;1.442;2023-01-25T06:08:32;51.25;44.75;26.25
44933;PMS3003;30667;43.614;1.442;2023-01-25T06:10:57;47.25;35.75;21.00
44933;PMS3003;30667;43.614;1.442;2023-01-25T06:13:23;46.25;39.25;23.00
44933;PMS3003;30667;43.614;1.442;2023-01-25T06:15:54;42.20;39.40;24.40
44933;PMS3003;30667;43.614;1.442;2023-01-25T06:18:21;45.60;40.00;24.00
44933;PMS3003;30667;43.614;1.442;2023-01-25T06:20:48;42.40;37.00;23.80
44933;PMS3003;30667;43.614;1.442;2023-01-25T06:23:14;52.00;39.40;24.40
44933;PMS3003;30667;43.614;1.442;2023-01-25T06:25:39;42.25;38.25;23.75
44933;PMS3003;30667;43.614;1.442;2023-01-25T06:28:05;39.25;35.75;22.25
44933;PMS3003;30667;43.614;1.442;2023-01-25T06:30:30;45.75;41.50;25.75
44933;PMS3003;30667;43.614;1.442;2023-01-25T06:32:58;39.50;35.25;23.50
44933;PMS3003;30667;43.614;1.442;2023-01-25T06:35:24;40.40;36.20;22.40
44933;PMS3003;30667;43.614;1.442;2023-01-25T06:37:53;38.60;37.40;22.60
44933;PMS3003;30667;43.614;1.442;2023-01-25T06:40:19;44.60;37.80;21.00
44933;PMS3003;30667;43.614;1.442;2023-01-25T06:42:45;37.25;35.25;20.25
44933;PMS3003;30667;43.614;1.442;2023-01-25T06:45:10;37.25;34.50;20.50
44933;PMS3003;30667;43.614;1.442;2023-01-25T06:47:35;40.00;33.25;20.00
44933;PMS3003;30667;43.614;1.442;2023-01-25T06:50:01;40.50;36.00;23.00
44933;PMS3003;30667;43.614;1.442;2023-01-25T06:52:26;40.75;36.00;20.50
44933;PMS3003;30667;43.614;1.442;2023-01-25T06:54:52;42.75;36.75;21.50
44933;PMS3003;30667;43.614;1.442;2023-01-25T06:57:17;43.50;37.00;23.25
44933;PMS3003;30667;43.614;1.442;2023-01-25T06:59:42;39.25;35.00;22.00
44933;PMS3003;30667;43.614;1.442;2023-01-25T07:02:10;46.75;40.00;23.75
44933;PMS3003;30667;43.614;1.442;2023-01-25T07:04:39;42.00;39.00;24.60
44933;PMS3003;30667;43.614;1.442;2023-01-25T07:07:06;41.25;36.75;24.00
44933;PMS3003;30667;43.614;1.442;2023-01-25T07:09:33;38.80;32.00;20.00
44933;PMS3003;30667;43.614;1.442;2023-01-25T07:11:58;43.50;36.25;23.00
44933;PMS3003;30667;43.614;1.442;2023-01-25T07:14:24;43.75;36.25;23.00
44933;PMS3003;30667;43.614;1.442;2023-01-25T07:16:49;42.25;36.50;21.75
44933;PMS3003;30667;43.614;1.442;2023-01-25T07:19:14;39.75;35.50;22.75
44933;PMS3003;30667;43.614;1.442;2023-01-25T07:21:41;42.60;36.40;22.80
44933;PMS3003;30667;43.614;1.442;2023-01-25T07:24:09;40.50;38.00;24.50
44933;PMS3003;30667;43.614;1.442;2023-01-25T07:26:39;43.00;39.00;23.40
44933;PMS3003;30667;43.614;1.442;2023-01-25T07:29:04;41.00;36.00;24.50
44933;PMS3003;30667;43.614;1.442;2023-01-25T07:31:30;42.25;37.25;23.75
44933;PMS3003;30667;43.614;1.442;2023-01-25T07:33:56;39.25;37.50;23.75
44933;PMS3003;30667;43.614;1.442;2023-01-25T07:36:22;40.40;37.00;22.80
44933;PMS3003;30667;43.614;1.442;2023-01-25T07:38:51;38.20;35.00;22.00
44933;PMS3003;30667;43.614;1.442;2023-01-25T07:41:20;42.00;39.40;22.60
44933;PMS3003;30667;43.614;1.442;2023-01-25T07:43:47;47.00;37.60;22.60
44933;PMS3003;30667;43.614;1.442;2023-01-25T07:46:12;35.50;33.00;21.00
44933;PMS3003;30667;43.614;1.442;2023-01-25T07:48:40;45.80;38.20;22.00
44933;PMS3003;30667;43.614;1.442;2023-01-25T07:51:09;41.60;37.40;22.80
44933;PMS3003;30667;43.614;1.442;2023-01-25T07:53:46;45.00;38.40;22.80
44933;PMS3003;30667;43.614;1.442;2023-01-25T07:56:16;39.60;34.60;22.40
44933;PMS3003;30667;43.614;1.442;2023-01-25T07:58:43;39.20;32.00;20.00
44933;PMS3003;30667;43.614;1.442;2023-01-25T08:01:10;40.20;35.80;22.00
44933;PMS3003;30667;43.614;1.442;2023-01-25T08:03:40;40.40;35.00;22.20
44933;PMS3003;30667;43.614;1.442;2023-01-25T08:06:06;38.75;37.25;22.00
44933;PMS3003;30667;43.614;1.442;2023-01-25T08:08:33;41.20;37.60;23.00
44933;PMS3003;30667;43.614;1.442;2023-01-25T08:11:00;37.40;35.00;22.20
44933;PMS3003;30667;43.614;1.442;2023-01-25T08:13:33;43.80;37.60;23.00
44933;PMS3003;30667;43.614;1.442;2023-01-25T08:15:58;41.75;36.50;21.00
44933;PMS3003;30667;43.614;1.442;2023-01-25T08:18:23;40.00;36.50;22.50
44933;PMS3003;30667;43.614;1.442;2023-01-25T08:20:49;38.75;30.75;21.25
44933;PMS3003;30667;43.614;1.442;2023-01-25T08:23:15;37.75;32.25;20.50
44933;PMS3003;30667;43.614;1.442;2023-01-25T08:25:40;38.00;35.50;23.75
44933;PMS3003;30667;43.614;1.442;2023-01-25T08:28:06;40.25;37.75;24.50
44933;PMS3003;30667;43.614;1.442;2023-01-25T08:30:32;38.40;33.40;21.00
44933;PMS3003;30667;43.614;1.442;2023-01-25T08:32:57;44.60;39.20;24.00
44933;PMS3003;30667;43.614;1.442;2023-01-25T08:35:23;41.50;37.50;22.00
44933;PMS3003;30667;43.614;1.442;2023-01-25T08:37:48;38.00;33.75;22.00
44933;PMS3003;30667;43.614;1.442;2023-01-25T08:40:13;41.50;37.75;21.75
44933;PMS3003;30667;43.614;1.442;2023-01-25T08:42:39;45.00;34.75;22.00
44933;PMS3003;30667;43.614;1.442;2023-01-25T08:45:07;42.60;34.80;22.60
44933;PMS3003;30667;43.614;1.442;2023-01-25T08:47:33;43.00;38.20;22.40
44933;PMS3003;30667;43.614;1.442;2023-01-25T08:49:58;35.50;33.75;21.00
44933;PMS3003;30667;43.614;1.442;2023-01-25T08:52:24;39.40;35.20;18.60
44933;PMS3003;30667;43.614;1.442;2023-01-25T08:54:50;38.75;34.25;19.75
44933;PMS3003;30667;43.614;1.442;2023-01-25T08:57:15;35.00;33.00;21.00
44933;PMS3003;30667;43.614;1.442;2023-01-25T08:59:41;34.75;31.75;20.75
44933;PMS3003;30667;43.614;1.442;2023-01-25T09:02:07;37.25;32.50;20.00
44933;PMS3003;30667;43.614;1.442;2023-01-25T09:04:35;38.20;34.40;21.20
44933;PMS3003;30667;43.614;1.442;2023-01-25T09:07:01;38.25;32.75;21.75
44933;PMS3003;30667;43.614;1.442;2023-01-25T09:09:26;36.75;35.00;21.00
44933;PMS3003;30667;43.614;1.442;2023-01-25T09:11:53;39.20;35.60;23.00
44933;PMS3003;30667;43.614;1.442;2023-01-25T09:14:19;38.25;32.00;20.75
44933;PMS3003;30667;43.614;1.442;2023-01-25T09:16:44;33.00;31.50;19.75
44933;PMS3003;30667;43.614;1.442;2023-01-25T09:19:10;39.50;35.75;21.00
44933;PMS3003;30667;43.614;1.442;2023-01-25T09:21:35;42.50;34.00;22.50
44933;PMS3003;30667;43.614;1.442;2023-01-25T09:24:01;39.50;33.00;21.50
44933;PMS3003;30667;43.614;1.442;2023-01-25T09:26:26;39.50;35.50;23.00
44933;PMS3003;30667;43.614;1.442;2023-01-25T09:28:52;37.50;33.75;21.25
44933;PMS3003;30667;43.614;1.442;2023-01-25T09:31:19;41.00;34.80;22.00
44933;PMS3003;30667;43.614;1.442;2023-01-25T09:33:45;38.80;34.80;22.00
44933;PMS3003;30667;43.614;1.442;2023-01-25T09:36:10;37.00;31.75;20.00
44933;PMS3003;30667;43.614;1.442;2023-01-25T09:38:36;37.75;33.00;21.25
44933;PMS3003;30667;43.614;1.442;2023-01-25T09:46:53;45.40;35.60;21.60
44933;PMS3003;30667;43.614;1.442;2023-01-25T09:54:38;39.80;36.20;23.00
44933;PMS3003;30667;43.614;1.442;2023-01-25T09:57:47;41.00;37.80;23.80
44933;PMS3003;30667;43.614;1.442;2023-01-25T10:00:13;37.00;29.80;19.00
44933;PMS3003;30667;43.614;1.442;2023-01-25T10:05:35;40.20;33.40;21.80
44933;PMS3003;30667;43.614;1.442;2023-01-25T10:08:15;38.60;30.80;17.80
44933;PMS3003;30667;43.614;1.442;2023-01-25T10:10:44;35.40;30.60;20.80
44933;PMS3003;30667;43.614;1.442;2023-01-25T10:13:14;37.20;33.40;20.60
44933;PMS3003;30667;43.614;1.442;2023-01-25T10:15:46;35.80;31.60;19.00
44933;PMS3003;30667;43.614;1.442;2023-01-25T10:29:14;39.80;33.60;22.60
44933;PMS3003;30667;43.614;1.442;2023-01-25T10:31:50;39.80;34.40;20.60
44933;PMS3003;30667;43.614;1.442;2023-01-25T10:36:43;43.50;35.75;22.00
44933;PMS3003;30667;43.614;1.442;2023-01-25T10:39:13;35.60;33.80;20.80
44933;PMS3003;30667;43.614;1.442;2023-01-25T10:41:43;42.80;35.20;22.20
44933;PMS3003;30667;43.614;1.442;2023-01-25T10:44:14;42.80;37.20;21.80
44933;PMS3003;30667;43.614;1.442;2023-01-25T10:54:44;43.60;34.20;21.60
44933;PMS3003;30667;43.614;1.442;2023-01-25T10:57:15;32.40;28.20;16.20
44933;PMS3003;30667;43.614;1.442;2023-01-25T10:59:44;40.00;31.00;16.80
44933;PMS3003;30667;43.614;1.442;2023-01-25T11:05:14;32.20;27.60;17.60
44933;PMS3003;30667;43.614;1.442;2023-01-25T11:07:49;29.20;27.00;16.60
44933;PMS3003;30667;43.614;1.442;2023-01-25T11:10:36;31.75;28.50;18.25
44933;PMS3003;30667;43.614;1.442;2023-01-25T11:15:43;38.00;32.00;20.20
44933;PMS3003;30667;43.614;1.442;2023-01-25T11:18:12;35.00;29.80;19.20
44933;PMS3003;30667;43.614;1.442;2023-01-25T11:20:42;28.80;26.00;17.40
44933;PMS3003;30667;43.614;1.442;2023-01-25T11:23:23;31.75;29.00;18.00
44933;PMS3003;30667;43.614;1.442;2023-01-25T11:25:50;34.40;30.60;15.20
44933;PMS3003;30667;43.614;1.442;2023-01-25T11:28:20;32.40;29.20;18.00
44933;PMS3003;30667;43.614;1.442;2023-01-25T11:30:47;34.80;31.80;20.60
44933;PMS3003;30667;43.614;1.442;2023-01-25T11:33:16;34.40;29.60;16.20
44933;PMS3003;30667;43.614;1.442;2023-01-25T11:38:27;37.60;26.00;15.20
44933;PMS3003;30667;43.614;1.442;2023-01-25T11:43:40;28.20;24.80;16.60
44933;PMS3003;30667;43.614;1.442;2023-01-25T11:48:40;29.00;28.25;16.00
44933;PMS3003;30667;43.614;1.442;2023-01-25T11:51:21;32.60;24.60;15.00
44933;PMS3003;30667;43.614;1.442;2023-01-25T12:10:14;48.00;41.40;27.80
44933;PMS3003;30667;43.614;1.442;2023-01-25T12:12:46;47.20;42.20;27.60
44933;PMS3003;30667;43.614;1.442;2023-01-25T12:26:44;40.20;34.60;22.20
44933;PMS3003;30667;43.614;1.442;2023-01-25T12:28:56;32.80;30.60;20.00
44933;PMS3003;30667;43.614;1.442;2023-01-25T12:34:21;36.00;28.80;17.40
44933;PMS3003;30667;43.614;1.442;2023-01-25T12:36:50;37.40;34.60;20.20
44933;PMS3003;30667;43.614;1.442;2023-01-25T12:39:20;36.75;26.00;18.00
44933;PMS3003;30667;43.614;1.442;2023-01-25T12:44:29;28.60;25.60;16.00
44933;PMS3003;30667;43.614;1.442;2023-01-25T12:47:04;33.60;28.80;19.00
44933;PMS3003;30667;43.614;1.442;2023-01-25T12:49:47;29.40;26.20;16.60
44933;PMS3003;30667;43.614;1.442;2023-01-25T12:52:45;39.60;32.20;18.40
44933;PMS3003;30667;43.614;1.442;2023-01-25T12:55:27;31.80;29.20;17.60
44933;PMS3003;30667;43.614;1.442;2023-01-25T13:08:35;32.00;27.00;17.60
44933;PMS3003;30667;43.614;1.442;2023-01-25T13:13:40;44.40;35.20;19.80
44933;PMS3003;30667;43.614;1.442;2023-01-25T13:16:22;38.00;27.75;17.50
44933;PMS3003;30667;43.614;1.442;2023-01-25T13:18:48;32.00;28.40;17.60
44933;PMS3003;30667;43.614;1.442;2023-01-25T13:31:59;32.80;30.60;19.60
44933;PMS3003;30667;43.614;1.442;2023-01-25T13:44:53;34.75;29.25;16.75
44933;PMS3003;30667;43.614;1.442;2023-01-25T13:47:25;39.60;33.40;19.00
44933;PMS3003;30667;43.614;1.442;2023-01-25T13:49:55;37.20;33.00;19.00
44933;PMS3003;30667;43.614;1.442;2023-01-25T13:52:22;33.00;30.00;17.80
44933;PMS3003;30667;43.614;1.442;2023-01-25T13:54:49;36.00;30.60;18.40
44933;PMS3003;30667;43.614;1.442;2023-01-25T13:57:23;29.60;28.60;17.80
44933;PMS3003;30667;43.614;1.442;2023-01-25T14:02:29;35.40;30.00;18.60
44933;PMS3003;30667;43.614;1.442;2023-01-25T14:04:56;36.00;32.40;19.40
44933;PMS3003;30667;43.614;1.442;2023-01-25T14:07:25;37.40;35.80;20.80
44933;PMS3003;30667;43.614;1.442;2023-01-25T14:09:56;35.40;27.60;17.00
44933;PMS3003;30667;43.614;1.442;2023-01-25T14:20:33;31.00;27.20;17.60
44933;PMS3003;30667;43.614;1.442;2023-01-25T14:22:59;33.00;28.25;16.00
44933;PMS3003;30667;43.614;1.442;2023-01-25T14:25:24;35.75;32.50;18.75
44933;PMS3003;30667;43.614;1.442;2023-01-25T14:27:53;31.60;28.00;17.80
44933;PMS3003;30667;43.614;1.442;2023-01-25T14:30:27;33.60;28.40;16.80
44933;PMS3003;30667;43.614;1.442;2023-01-25T14:33:15;31.60;26.60;16.40
44933;PMS3003;30667;43.614;1.442;2023-01-25T14:35:45;35.80;30.20;18.20
44933;PMS3003;30667;43.614;1.442;2023-01-25T14:38:28;35.60;29.40;18.40
44933;PMS3003;30667;43.614;1.442;2023-01-25T14:41:01;31.20;27.80;16.00
44933;PMS3003;30667;43.614;1.442;2023-01-25T14:43:27;37.40;29.40;17.00
44933;PMS3003;30667;43.614;1.442;2023-01-25T14:45:54;34.80;29.00;19.00
44933;PMS3003;30667;43.614;1.442;2023-01-25T14:48:37;38.20;30.00;18.40
44933;PMS3003;30667;43.614;1.442;2023-01-25T14:51:09;30.40;28.60;18.40
44933;PMS3003;30667;43.614;1.442;2023-01-25T14:53:40;32.60;30.40;19.00
44933;PMS3003;30667;43.614;1.442;2023-01-25T14:56:52;31.20;27.20;18.00
44933;PMS3003;30667;43.614;1.442;2023-01-25T14:59:06;37.60;31.60;18.80
44933;PMS3003;30667;43.614;1.442;2023-01-25T15:01:41;28.80;28.80;17.80
44933;PMS3003;30667;43.614;1.442;2023-01-25T15:04:10;32.00;27.25;15.25
44933;PMS3003;30667;43.614;1.442;2023-01-25T15:06:50;28.20;26.80;16.00
44933;PMS3003;30667;43.614;1.442;2023-01-25T15:12:25;35.60;31.60;17.20
44933;PMS3003;30667;43.614;1.442;2023-01-25T15:14:51;32.20;28.60;18.00
44933;PMS3003;30667;43.614;1.442;2023-01-25T15:17:40;35.60;29.80;18.40
44933;PMS3003;30667;43.614;1.442;2023-01-25T15:22:56;32.20;28.80;18.40
44933;PMS3003;30667;43.614;1.442;2023-01-25T15:25:24;34.00;29.60;19.80
44933;PMS3003;30667;43.614;1.442;2023-01-25T15:27:50;42.50;35.50;20.00
44933;PMS3003;30667;43.614;1.442;2023-01-25T15:30:16;32.75;30.25;18.25
44933;PMS3003;30667;43.614;1.442;2023-01-25T15:32:43;31.40;28.80;16.60
44933;PMS3003;30667;43.614;1.442;2023-01-25T15:35:12;34.40;29.60;17.80
44933;PMS3003;30667;43.614;1.442;2023-01-25T15:37:39;37.20;29.80;17.60
44933;PMS3003;30667;43.614;1.442;2023-01-25T15:40:05;26.50;25.00;16.00
44933;PMS3003;30667;43.614;1.442;2023-01-25T15:42:31;32.60;28.80;17.60
44933;PMS3003;30667;43.614;1.442;2023-01-25T15:44:56;35.75;27.25;15.00
44933;PMS3003;30667;43.614;1.442;2023-01-25T15:47:22;31.75;29.25;15.75
44933;PMS3003;30667;43.614;1.442;2023-01-25T15:49:47;34.25;29.25;16.00
44933;PMS3003;30667;43.614;1.442;2023-01-25T15:52:13;34.25;32.00;18.50
44933;PMS3003;30667;43.614;1.442;2023-01-25T15:54:39;40.25;33.50;19.25
44933;PMS3003;30667;43.614;1.442;2023-01-25T15:57:05;32.80;29.60;18.00
44933;PMS3003;30667;43.614;1.442;2023-01-25T15:59:44;34.40;28.00;17.80
44933;PMS3003;30667;43.614;1.442;2023-01-25T16:02:10;31.50;29.75;18.00
44933;PMS3003;30667;43.614;1.442;2023-01-25T16:04:37;31.20;29.40;18.40
44933;PMS3003;30667;43.614;1.442;2023-01-25T16:07:02;33.50;29.75;18.50
44933;PMS3003;30667;43.614;1.442;2023-01-25T16:09:28;41.20;34.40;20.60
44933;PMS3003;30667;43.614;1.442;2023-01-25T16:11:58;35.40;31.00;17.00
44933;PMS3003;30667;43.614;1.442;2023-01-25T16:14:25;32.80;27.80;16.40
44933;PMS3003;30667;43.614;1.442;2023-01-25T16:16:54;38.60;33.20;18.80
44933;PMS3003;30667;43.614;1.442;2023-01-25T16:19:22;37.80;30.00;17.00
44933;PMS3003;30667;43.614;1.442;2023-01-25T16:21:48;36.00;31.20;20.00
44933;PMS3003;30667;43.614;1.442;2023-01-25T16:24:15;35.20;27.40;17.60
44933;PMS3003;30667;43.614;1.442;2023-01-25T16:26:51;35.75;31.50;18.25